This is the latest recevied weather packets stored in our database for station/object PY2FLB-13. If no packets are shown the sender has not sent any weather packets the latest 10 day(s).
| Time | Temp. | Humidity | Pressure | Rain* | Wind** | Luminosity | Snow |
|---|---|---|---|---|---|---|---|
| 1777439857 | 26.11° C | 61% | 1012.2 hPa | - | - | - | - |
| 1777439557 | 26.11° C | 61% | 1012.2 hPa | - | - | - | - |
| 1777439257 | 26.11° C | 61% | 1012.4 hPa | - | - | - | - |
| 1777438957 | 26.11° C | 62% | 1012.4 hPa | - | - | - | - |
| 1777438657 | 26.11° C | 62% | 1012.5 hPa | - | - | - | - |
| 1777438357 | 26.11° C | 62% | 1012.5 hPa | - | - | - | - |
| 1777438057 | 26.11° C | 62% | 1012.6 hPa | - | - | - | - |
| 1777437756 | 25.56° C | 63% | 1012.8 hPa | - | - | - | - |
| 1777437457 | 26.67° C | 61% | 1012.6 hPa | - | - | - | - |
| 1777437157 | 26.11° C | 62% | 1012.7 hPa | - | - | - | - |
| 1777436857 | 26.11° C | 62% | 1012.6 hPa | - | - | - | - |
| 1777436557 | 26.11° C | 62% | 1012.7 hPa | - | - | - | - |
| 1777436257 | 26.11° C | 62% | 1012.8 hPa | - | - | - | - |
| 1777435957 | 26.11° C | 62% | 1012.7 hPa | - | - | - | - |
| 1777435657 | 26.67° C | 61% | 1012.7 hPa | - | - | - | - |
| 1777435357 | 25.56° C | 63% | 1012.9 hPa | - | - | - | - |
| 1777435057 | 26.11° C | 61% | 1012.9 hPa | - | - | - | - |
| 1777434757 | 26.11° C | 61% | 1012.9 hPa | - | - | - | - |
| 1777434457 | 26.11° C | 62% | 1013 hPa | - | - | - | - |
| 1777434156 | 26.67° C | 60% | 1013 hPa | - | - | - | - |
| 1777433856 | 26.67° C | 60% | 1013 hPa | - | - | - | - |
| 1777433557 | 26.67° C | 60% | 1013.1 hPa | - | - | - | - |
| 1777433257 | 27.22° C | 59% | 1012.9 hPa | - | - | - | - |
| 1777432957 | 26.67° C | 59% | 1013.1 hPa | - | - | - | - |
| 1777432657 | 27.78° C | 57% | 1012.9 hPa | - | - | - | - |
* Rain since midnight (hover to see other rain measurements)
** Current wind speed in m/s (hover to see current wind gust speed)